createdAt,value
2019-05-21T00:01:04.999Z,18.39
2019-05-21T00:03:33.416Z,18.36
2019-05-21T00:06:01.849Z,18.41
2019-05-21T00:08:30.295Z,18.45
2019-05-21T00:10:58.714Z,18.47
2019-05-21T00:13:27.143Z,18.48
2019-05-21T00:15:55.572Z,18.54
2019-05-21T00:18:24.003Z,18.57
2019-05-21T00:20:52.420Z,18.58
2019-05-21T00:23:20.869Z,18.60
2019-05-21T00:25:49.293Z,18.60
2019-05-21T00:28:35.797Z,18.61
2019-05-21T00:31:40.567Z,18.65
2019-05-21T00:34:45.069Z,18.05
2019-05-21T00:37:50.105Z,18.61
2019-05-21T00:40:54.806Z,18.61
2019-05-21T00:43:45.888Z,18.61
2019-05-21T00:46:14.327Z,18.61
2019-05-21T00:48:42.754Z,18.63
2019-05-21T00:51:11.166Z,18.66
2019-05-21T00:53:39.631Z,18.68
2019-05-21T00:56:08.063Z,18.68
2019-05-21T00:58:36.537Z,18.69
2019-05-21T01:01:04.962Z,18.69
2019-05-21T01:03:33.393Z,18.70
2019-05-21T01:06:01.826Z,18.71
2019-05-21T01:08:30.247Z,18.72
2019-05-21T01:10:58.679Z,18.70
2019-05-21T01:13:27.967Z,18.63
2019-05-21T01:15:56.455Z,18.56
2019-05-21T01:18:24.897Z,18.50
2019-05-21T01:20:53.305Z,18.45
2019-05-21T01:23:21.761Z,18.40
2019-05-21T01:25:50.182Z,18.34
2019-05-21T01:28:18.600Z,18.30
2019-05-21T01:30:47.021Z,18.23
2019-05-21T01:33:15.455Z,18.21
2019-05-21T01:35:43.892Z,18.18
2019-05-21T01:38:12.406Z,18.15
2019-05-21T01:40:40.863Z,18.09
2019-05-21T01:43:09.338Z,17.98
2019-05-21T01:45:37.791Z,17.88
2019-05-21T01:48:06.217Z,17.79
2019-05-21T01:50:34.668Z,17.60
2019-05-21T01:53:03.227Z,17.55
2019-05-21T01:55:31.643Z,17.46
2019-05-21T01:58:00.074Z,17.43
2019-05-21T02:00:28.515Z,17.33
2019-05-21T02:02:56.946Z,17.29
2019-05-21T02:05:33.174Z,17.27
2019-05-21T02:07:56.107Z,17.23
2019-05-21T02:10:24.529Z,17.18
2019-05-21T02:12:53.239Z,17.18
2019-05-21T02:15:21.682Z,17.13
2019-05-21T02:17:50.126Z,17.15
2019-05-21T02:20:18.560Z,17.15
2019-05-21T02:22:46.997Z,17.15
2019-05-21T02:25:15.502Z,17.13
2019-05-21T02:27:43.959Z,17.14
2019-05-21T02:30:13.377Z,17.12
2019-05-21T02:32:41.801Z,17.10
2019-05-21T02:35:10.485Z,17.10
2019-05-21T02:37:38.907Z,17.10
2019-05-21T02:40:08.375Z,17.08
2019-05-21T02:42:36.845Z,17.08
2019-05-21T02:45:06.909Z,17.09
2019-05-21T02:47:35.335Z,17.09
2019-05-21T02:50:05.600Z,17.03
2019-05-21T02:52:34.118Z,17.03
2019-05-21T02:55:02.632Z,17.02
2019-05-21T02:57:42.992Z,17.01
2019-05-21T03:00:21.502Z,17.02
2019-05-21T03:02:49.952Z,17.01
2019-05-21T03:05:18.383Z,16.96
2019-05-21T03:07:46.916Z,16.97
2019-05-21T03:10:15.425Z,16.96
2019-05-21T03:12:43.851Z,16.97
2019-05-21T03:15:12.399Z,16.96
2019-05-21T03:17:40.824Z,16.93
2019-05-21T03:20:10.094Z,16.95
2019-05-21T03:22:38.536Z,16.96
2019-05-21T03:25:07.828Z,16.97
2019-05-21T03:27:36.251Z,16.97
2019-05-21T03:30:07.461Z,16.97
2019-05-21T03:32:35.932Z,16.98
2019-05-21T03:35:07.906Z,16.98
2019-05-21T03:37:36.330Z,17.00
2019-05-21T03:40:09.154Z,17.00
2019-05-21T03:42:37.599Z,17.02
2019-05-21T03:45:08.063Z,17.02
2019-05-21T03:47:36.779Z,17.03
2019-05-21T03:50:06.487Z,17.05
2019-05-21T03:52:35.026Z,17.05
2019-05-21T03:55:03.936Z,17.08
2019-05-21T03:57:32.717Z,17.10
2019-05-21T04:00:01.270Z,17.10
2019-05-21T04:02:29.665Z,17.12
2019-05-21T04:04:58.165Z,17.10
2019-05-21T04:07:26.550Z,17.09
2019-05-21T04:09:54.985Z,17.09
2019-05-21T04:12:23.430Z,17.08
2019-05-21T04:15:02.160Z,17.08
2019-05-21T04:17:34.861Z,17.11
2019-05-21T04:20:02.735Z,16.64
2019-05-21T04:22:31.205Z,17.12
2019-05-21T04:24:59.630Z,17.11
2019-05-21T04:27:28.058Z,17.14
2019-05-21T04:29:56.494Z,17.13
2019-05-21T04:32:24.913Z,17.14
2019-05-21T04:34:53.376Z,17.14
2019-05-21T04:37:21.803Z,17.15
2019-05-21T04:39:50.234Z,17.16
2019-05-21T04:42:18.684Z,17.18
2019-05-21T04:44:47.131Z,17.20
2019-05-21T04:47:15.749Z,17.22
2019-05-21T04:49:44.189Z,17.26
2019-05-21T04:52:12.612Z,17.27
2019-05-21T04:54:41.041Z,17.27
2019-05-21T04:57:09.495Z,17.31
2019-05-21T04:59:37.919Z,17.33
2019-05-21T05:02:06.368Z,17.34
2019-05-21T05:04:34.803Z,17.35
2019-05-21T05:07:03.312Z,17.37
2019-05-21T05:09:31.714Z,17.39
2019-05-21T05:12:00.168Z,17.42
2019-05-21T05:14:28.649Z,17.41
2019-05-21T05:16:57.079Z,17.43
2019-05-21T05:19:25.515Z,17.42
2019-05-21T05:21:53.939Z,17.45
2019-05-21T05:24:22.374Z,17.46
2019-05-21T05:26:50.839Z,17.46
2019-05-21T05:29:19.314Z,17.51
2019-05-21T05:31:47.773Z,17.57
2019-05-21T05:34:16.246Z,17.61
2019-05-21T05:36:44.644Z,17.64
2019-05-21T05:39:13.070Z,17.67
2019-05-21T05:41:41.522Z,17.72
2019-05-21T05:44:09.947Z,17.73
2019-05-21T14:34:32.160Z,15.99
2019-05-21T14:37:00.583Z,16.02
2019-05-21T14:39:29.076Z,16.30
2019-05-21T14:41:57.472Z,16.54
2019-05-21T14:44:25.942Z,16.73
2019-05-21T14:46:54.367Z,16.88
2019-05-21T14:49:22.798Z,17.01
2019-05-21T14:51:51.237Z,17.12
2019-05-21T14:54:26.658Z,17.16
2019-05-21T14:56:49.836Z,17.22
2019-05-21T14:59:18.346Z,17.30
2019-05-21T15:01:46.775Z,17.28
2019-05-21T15:04:15.385Z,17.20
2019-05-21T15:06:43.906Z,17.18
2019-05-21T15:09:12.341Z,17.11
2019-05-21T15:11:40.798Z,17.05
2019-05-21T15:14:09.227Z,16.98
2019-05-21T15:16:37.665Z,16.89
2019-05-21T15:19:06.170Z,16.84
2019-05-21T15:21:38.858Z,16.77
2019-05-21T15:24:08.316Z,16.70
2019-05-21T15:26:37.073Z,16.65
2019-05-21T15:29:05.511Z,16.58
2019-05-21T15:31:33.949Z,16.53
2019-05-21T15:34:02.391Z,16.48
2019-05-21T15:36:30.837Z,16.45
2019-05-21T15:38:59.313Z,16.37
2019-05-21T15:41:27.763Z,16.34
2019-05-21T15:43:56.161Z,16.28
2019-05-21T15:46:24.596Z,16.27
2019-05-21T15:48:53.607Z,16.22
2019-05-21T15:51:22.175Z,16.17
2019-05-21T15:53:50.640Z,16.21
2019-05-21T15:56:19.095Z,16.17
2019-05-21T15:58:47.617Z,16.14
2019-05-21T16:01:16.184Z,16.07
2019-05-21T16:03:44.656Z,16.05
2019-05-21T16:06:13.090Z,16.01
2019-05-21T16:08:41.597Z,15.98
2019-05-21T16:11:27.544Z,15.99
2019-05-21T16:13:40.716Z,15.94
2019-05-21T16:16:09.131Z,15.93
2019-05-21T16:18:37.575Z,15.91
2019-05-21T16:21:05.997Z,15.91
2019-05-21T16:23:34.460Z,15.88
2019-05-21T16:26:02.887Z,15.91
2019-05-21T16:28:31.324Z,15.90
2019-05-21T16:30:59.836Z,15.86
2019-05-21T16:33:28.264Z,15.89
2019-05-21T16:35:56.702Z,15.86
2019-05-21T16:38:25.213Z,15.83
2019-05-21T16:40:53.647Z,15.81
2019-05-21T16:43:22.337Z,15.85
2019-05-21T16:45:50.789Z,15.80
2019-05-21T16:48:20.306Z,15.76
2019-05-21T16:50:48.736Z,15.76
2019-05-21T16:53:17.178Z,15.76
2019-05-21T16:55:45.607Z,15.73
2019-05-21T16:58:14.211Z,15.70
2019-05-21T17:00:42.745Z,15.73
2019-05-21T17:03:11.213Z,15.71
2019-05-21T17:05:39.649Z,15.67
2019-05-21T17:08:08.179Z,15.67
2019-05-21T17:10:41.403Z,15.66
2019-05-21T17:13:14.933Z,15.65
2019-05-21T17:15:43.560Z,15.67
2019-05-21T17:18:12.099Z,15.64
2019-05-21T17:20:40.765Z,15.67
2019-05-21T17:23:09.417Z,15.62
2019-05-21T17:25:38.190Z,15.68
2019-05-21T17:28:06.697Z,15.68
2019-05-21T17:30:35.170Z,15.64
2019-05-21T17:33:03.698Z,15.58
2019-05-21T17:35:32.213Z,15.57
2019-05-21T17:38:00.633Z,15.55
2019-05-21T17:40:29.127Z,15.55
2019-05-21T17:42:57.558Z,15.50
2019-05-21T17:45:25.998Z,15.43
2019-05-21T17:47:54.439Z,15.44
2019-05-21T17:50:23.135Z,15.43
2019-05-21T17:52:51.781Z,15.44
2019-05-21T17:55:20.284Z,15.41
2019-05-21T17:57:48.851Z,15.40
2019-05-21T18:00:20.437Z,15.37
2019-05-21T18:02:49.472Z,15.33
2019-05-21T18:05:18.725Z,15.33
2019-05-21T18:07:47.234Z,15.31
2019-05-21T18:10:16.742Z,15.33
2019-05-21T18:12:45.701Z,15.27
2019-05-21T18:15:16.135Z,15.28
2019-05-21T18:17:44.777Z,15.21
2019-05-21T18:20:15.396Z,15.19
2019-05-21T18:22:45.683Z,15.18
2019-05-21T18:25:14.733Z,15.17
2019-05-21T18:27:43.233Z,15.19
2019-05-21T18:30:13.412Z,15.16
2019-05-21T18:32:41.852Z,15.13
2019-05-21T18:35:11.322Z,15.18
2019-05-21T18:37:39.799Z,15.14
2019-05-21T18:40:09.388Z,15.15
2019-05-21T18:42:37.879Z,15.19
2019-05-21T18:45:06.683Z,15.15
2019-05-21T18:47:35.113Z,15.09
2019-05-21T18:50:04.972Z,15.11
2019-05-21T18:52:33.453Z,15.12
2019-05-21T18:55:01.895Z,15.12
2019-05-21T18:57:30.315Z,15.08
2019-05-21T18:59:58.772Z,15.06
2019-05-21T19:02:27.201Z,15.05
2019-05-21T19:04:55.639Z,15.08
2019-05-21T19:07:24.134Z,15.06
2019-05-21T19:09:52.578Z,15.05
2019-05-21T19:12:21.074Z,15.03
2019-05-21T19:14:49.545Z,15.05
2019-05-21T19:17:17.982Z,15.03
2019-05-21T19:19:46.427Z,15.06
2019-05-21T19:22:14.862Z,15.06
2019-05-21T19:24:43.284Z,15.06
2019-05-21T19:27:11.809Z,15.02
2019-05-21T19:29:40.305Z,14.98
2019-05-21T19:32:08.743Z,14.96
2019-05-21T19:34:37.822Z,14.97
2019-05-21T19:37:06.474Z,14.93
2019-05-21T19:39:36.709Z,14.89
2019-05-21T19:42:05.188Z,14.89
2019-05-21T19:44:33.979Z,14.84
2019-05-21T19:47:02.478Z,14.82
2019-05-21T19:49:30.965Z,14.80
2019-05-21T19:51:59.417Z,14.77
2019-05-21T19:54:28.108Z,14.71
2019-05-21T19:56:58.346Z,14.73
2019-05-21T19:59:27.788Z,14.76
2019-05-21T20:02:01.083Z,14.70
2019-05-21T20:04:30.150Z,14.71
2019-05-21T20:06:59.437Z,14.70
2019-05-21T20:09:30.029Z,14.68
2019-05-21T20:11:58.628Z,14.70
2019-05-21T20:14:27.838Z,14.70
2019-05-21T20:16:58.903Z,14.68
2019-05-21T20:19:28.043Z,14.66
2019-05-21T20:21:56.517Z,14.67
2019-05-21T20:24:25.443Z,14.65
2019-05-21T20:26:54.411Z,14.64
2019-05-21T20:29:23.209Z,14.64
2019-05-21T20:31:52.958Z,14.60
2019-05-21T20:34:21.956Z,14.61
2019-05-21T20:36:50.387Z,14.56
2019-05-21T20:39:19.364Z,14.54
2019-05-21T20:41:48.639Z,14.51
2019-05-21T20:44:18.106Z,14.49
2019-05-21T20:46:46.732Z,14.42
2019-05-21T20:49:15.819Z,14.36
2019-05-21T20:51:44.666Z,14.39
2019-05-21T20:54:14.531Z,14.36
2019-05-21T20:56:43.535Z,14.36
2019-05-21T20:59:12.475Z,14.36
2019-05-21T21:01:42.340Z,14.30
2019-05-21T21:04:11.314Z,14.32
2019-05-21T21:06:40.520Z,14.31
2019-05-21T21:09:10.549Z,14.26
2019-05-21T21:11:39.411Z,14.20
2019-05-21T21:14:17.982Z,14.20
2019-05-21T21:16:40.106Z,14.11
2019-05-21T21:19:09.015Z,14.09
2019-05-21T21:21:38.245Z,14.09
2019-05-21T21:24:06.679Z,14.04
2019-05-21T21:26:35.953Z,14.01
2019-05-21T21:29:04.647Z,13.99
2019-05-21T21:31:33.141Z,13.97
2019-05-21T21:34:01.645Z,13.97
2019-05-21T21:36:30.630Z,13.91
2019-05-21T21:39:00.502Z,13.89
2019-05-21T21:41:29.555Z,13.87
2019-05-21T21:43:58.153Z,13.87
2019-05-21T21:46:26.634Z,13.89
2019-05-21T21:48:55.260Z,13.84
2019-05-21T21:51:24.920Z,13.85
2019-05-21T21:53:53.484Z,13.80
2019-05-21T21:56:22.422Z,13.84
2019-05-21T21:58:50.914Z,13.80
2019-05-21T22:01:35.665Z,13.79
2019-05-21T22:04:06.024Z,13.76
2019-05-21T22:06:35.666Z,13.73
2019-05-21T22:09:07.722Z,13.97
2019-05-21T22:11:37.131Z,13.75
2019-05-21T22:14:05.796Z,13.69
2019-05-21T22:16:34.795Z,13.70
2019-05-21T22:19:03.365Z,13.68
2019-05-21T22:21:32.749Z,13.70
2019-05-21T22:24:01.747Z,13.70
2019-05-21T22:26:30.686Z,13.62
2019-05-21T22:28:59.138Z,13.63
2019-05-21T22:31:27.613Z,13.69
2019-05-21T22:33:56.030Z,13.65
2019-05-21T22:36:24.621Z,13.60
2019-05-21T22:38:53.083Z,13.60
2019-05-21T22:41:21.505Z,13.57
2019-05-21T22:43:50.309Z,13.58
2019-05-21T22:46:18.758Z,13.54
2019-05-21T22:48:47.173Z,13.59
2019-05-21T22:51:15.602Z,13.55
2019-05-21T22:53:44.423Z,13.57
2019-05-21T22:56:12.850Z,13.58
2019-05-21T22:58:41.306Z,13.55
2019-05-21T23:01:10.773Z,13.56
2019-05-21T23:03:39.377Z,13.54
2019-05-21T23:06:07.875Z,13.57
2019-05-21T23:08:36.783Z,13.56
2019-05-21T23:11:05.223Z,13.56
2019-05-21T23:13:33.690Z,13.53
2019-05-21T23:16:02.867Z,13.54
2019-05-21T23:18:31.840Z,13.52
2019-05-21T23:21:02.079Z,13.57
2019-05-21T23:23:32.298Z,13.53
2019-05-21T23:26:01.128Z,13.51
2019-05-21T23:28:31.250Z,13.48
2019-05-21T23:31:01.998Z,13.46
2019-05-21T23:33:30.692Z,13.48
2019-05-21T23:36:00.318Z,13.44
2019-05-21T23:38:28.742Z,13.45
2019-05-21T23:40:58.426Z,13.44
2019-05-21T23:43:26.704Z,13.43
2019-05-21T23:45:55.648Z,13.70
2019-05-21T23:48:24.614Z,13.46
2019-05-21T23:50:53.090Z,13.43
2019-05-21T23:53:21.498Z,13.38
2019-05-21T23:55:50.698Z,13.36
2019-05-21T23:58:20.049Z,13.39
